Time;durP1;ratioP1;P1;durP2;ratioP2;P2;SDS_P1;SDS_P2;PMS_P1;PMS_P2;Temp;Humidity;BMP_temperature;BMP_pressure;BME280_temperature;BME280_humidity;BME280_pressure;Samples;Min_cycle;Max_cycle;Signal;HPM_P1;HPM_P2
2021/06/09 00:00:50;;;;;;;28.48;17.60;;;;;;;12.82;100.00;97168.09;5039332;28;20045;-64
2021/06/09 00:03:16;;;;;;;28.27;19.10;;;;;;;12.82;100.00;97171.63;5016647;28;20458;-65
2021/06/09 00:05:41;;;;;;;27.70;18.42;;;;;;;12.82;100.00;97162.59;5039914;28;20045;-62
2021/06/09 00:08:07;;;;;;;26.67;17.98;;;;;;;12.82;100.00;97174.38;5037967;28;20124;-65
2021/06/09 00:10:33;;;;;;;26.45;16.65;;;;;;;12.91;100.00;97174.13;5061509;28;20072;-66
2021/06/09 00:12:59;;;;;;;24.65;17.48;;;;;;;13.04;100.00;97182.94;5056072;28;20041;-63
2021/06/09 00:15:25;;;;;;;23.45;15.82;;;;;;;13.17;100.00;97178.78;5032764;28;20053;-63
2021/06/09 00:17:50;;;;;;;22.42;14.50;;;;;;;13.30;100.00;97184.84;5031908;28;20048;-64
2021/06/09 00:20:21;;;;;;;19.98;14.48;;;;;;;13.38;100.00;97181.06;5026027;28;20048;-64
2021/06/09 00:22:47;;;;;;;20.85;12.93;;;;;;;13.40;100.00;97169.69;5040411;28;20045;-65
2021/06/09 00:25:17;;;;;;;17.67;13.02;;;;;;;13.46;100.00;97170.16;5034664;28;20047;-66
2021/06/09 00:27:43;;;;;;;;;;;;;;;13.48;100.00;97167.81;5035635;28;20046;-65
2021/06/09 00:30:09;;;;;;;14.70;11.45;;;;;;;13.48;100.00;97165.84;5036030;28;20055;-64
2021/06/09 00:32:35;;;;;;;17.75;13.35;;;;;;;13.47;100.00;97174.47;5042017;28;20665;-64
2021/06/09 00:35:00;;;;;;;17.02;11.60;;;;;;;13.47;100.00;97163.47;5043722;28;20133;-65
2021/06/09 00:37:25;;;;;;;14.40;10.70;;;;;;;13.47;100.00;97158.78;5038563;28;20041;-66
2021/06/09 00:39:51;;;;;;;13.07;10.52;;;;;;;13.52;100.00;97163.16;5042509;28;20044;-64
2021/06/09 00:42:22;;;;;;;12.68;10.25;;;;;;;13.57;100.00;97158.09;5039259;28;20647;-65
2021/06/09 00:44:48;;;;;;;13.07;9.25;;;;;;;13.57;100.00;97154.56;5043337;28;20514;-65
2021/06/09 00:47:22;;;;;;;13.65;10.35;;;;;;;13.55;100.00;97151.41;5039048;28;20056;-64
2021/06/09 00:49:48;;;;;;;13.27;10.18;;;;;;;13.50;100.00;97146.22;5050292;28;20040;-65
2021/06/09 00:52:13;;;;;;;11.85;9.15;;;;;;;13.47;100.00;97155.22;5050724;28;20478;-65
2021/06/09 00:54:39;;;;;;;13.27;10.43;;;;;;;13.42;100.00;97144.56;5046570;28;20044;-63
2021/06/09 00:57:06;;;;;;;12.40;10.13;;;;;;;13.35;100.00;97148.00;5045390;28;20112;-64
2021/06/09 00:59:33;;;;;;;14.50;10.25;;;;;;;13.20;100.00;97144.25;5056350;28;20040;-64
2021/06/09 01:01:58;;;;;;;15.32;10.32;;;;;;;13.02;100.00;97146.78;5044485;28;20041;-64
2021/06/09 01:04:24;;;;;;;14.68;11.18;;;;;;;12.86;100.00;97143.41;5019550;28;20044;-66
2021/06/09 01:06:49;;;;;;;18.20;11.85;;;;;;;12.81;100.00;97150.78;5042865;28;20044;-64
2021/06/09 01:09:15;;;;;;;15.13;11.40;;;;;;;12.74;100.00;97141.66;5039769;28;20099;-64
2021/06/09 01:11:41;;;;;;;14.00;11.35;;;;;;;12.73;100.00;97146.34;5046169;28;20041;-63
2021/06/09 01:14:06;;;;;;;13.85;10.82;;;;;;;12.70;100.00;97149.84;5025585;28;20151;-65
2021/06/09 01:16:32;;;;;;;17.48;11.70;;;;;;;12.55;100.00;97154.31;5044010;28;20036;-63
2021/06/09 01:18:57;;;;;;;18.25;12.98;;;;;;;12.49;100.00;97144.00;5042687;28;20045;-64
2021/06/09 01:21:30;;;;;;;15.45;11.63;;;;;;;12.48;100.00;97142.41;5037410;28;20849;-64
2021/06/09 01:23:56;;;;;;;14.52;11.20;;;;;;;12.54;100.00;97143.69;5024224;28;20047;-65
2021/06/09 01:26:25;;;;;;;13.75;10.15;;;;;;;12.63;100.00;97139.53;5037411;28;20813;-64
2021/06/09 01:28:52;;;;;;;15.93;11.10;;;;;;;12.60;100.00;97139.47;5043116;28;20693;-66
2021/06/09 01:31:18;;;;;;;16.40;11.88;;;;;;;12.66;100.00;97132.50;5038210;28;20041;-65
2021/06/09 01:33:43;;;;;;;16.08;11.30;;;;;;;12.81;100.00;97136.25;5042500;28;20437;-64
2021/06/09 01:36:09;;;;;;;15.30;11.25;;;;;;;12.88;100.00;97146.56;5038134;28;20497;-65
2021/06/09 01:38:34;;;;;;;19.73;12.98;;;;;;;12.92;100.00;97150.94;5042708;28;20052;-65
2021/06/09 01:41:01;;;;;;;24.08;11.70;;;;;;;12.80;100.00;97143.72;5042430;28;20049;-66
2021/06/09 01:43:26;;;;;;;14.63;10.70;;;;;;;12.81;100.00;97139.00;5036602;28;20135;-69
2021/06/09 01:45:53;;;;;;;17.25;12.13;;;;;;;12.87;100.00;97145.75;5042245;28;20048;-65
2021/06/09 01:48:18;;;;;;;14.93;11.40;;;;;;;12.91;100.00;97140.31;5037408;28;20037;-64
2021/06/09 01:50:44;;;;;;;26.25;11.32;;;;;;;12.82;100.00;97133.13;5042642;28;20044;-64
2021/06/09 01:53:09;;;;;;;15.68;11.40;;;;;;;12.87;100.00;97134.75;5037180;28;20486;-63
2021/06/09 01:55:37;;;;;;;13.00;10.10;;;;;;;12.85;100.00;97136.31;5040838;28;20041;-65
2021/06/09 01:58:04;;;;;;;13.65;10.70;;;;;;;12.88;100.00;97138.31;5043600;28;20040;-67
2021/06/09 02:00:34;;;;;;;15.68;10.52;;;;;;;12.77;100.00;97133.47;5042580;28;20076;-65
2021/06/09 02:03:00;;;;;;;;;;;;;;;12.84;100.00;97135.53;5043508;28;20047;-65
2021/06/09 02:05:28;;;;;;;13.55;10.45;;;;;;;12.96;100.00;97140.00;5041444;28;19913;-65
2021/06/09 02:07:55;;;;;;;12.23;9.88;;;;;;;12.96;100.00;97140.00;5029502;28;20052;-66
2021/06/09 02:10:21;;;;;;;17.13;11.38;;;;;;;12.93;100.00;97127.00;5040872;28;20045;-65
2021/06/09 02:12:51;;;;;;;15.77;11.95;;;;;;;12.69;100.00;97126.25;5025288;28;20041;-65
2021/06/09 02:15:19;;;;;;;18.17;12.98;;;;;;;12.57;100.00;97134.72;5035570;28;20052;-64
2021/06/09 02:17:57;;;;;;;20.92;13.30;;;;;;;12.40;100.00;97133.28;5042193;28;20048;-64
2021/06/09 02:20:27;;;;;;;20.45;14.48;;;;;;;12.22;100.00;97135.72;5037570;28;20460;-65
2021/06/09 02:22:55;;;;;;;19.98;13.32;;;;;;;12.24;100.00;97136.16;5037525;28;20048;-66
2021/06/09 02:25:21;;;;;;;20.27;14.88;;;;;;;12.27;100.00;97129.94;5033701;28;20063;-63
2021/06/09 02:27:47;;;;;;;21.67;14.30;;;;;;;12.35;100.00;97130.81;5041562;28;20044;-64
2021/06/09 02:30:13;;;;;;;22.95;15.35;;;;;;;12.40;100.00;97139.53;5034501;28;20053;-66
2021/06/09 02:32:43;;;;;;;19.88;14.32;;;;;;;12.48;100.00;97136.91;5041226;28;20040;-63
2021/06/09 02:35:17;;;;;;;;;;;;;;;12.48;100.00;97139.66;5039936;28;20049;-65
2021/06/09 02:37:44;;;;;;;23.35;15.52;;;;;;;12.47;100.00;97140.84;5048478;28;19917;-66
2021/06/09 02:40:12;;;;;;;24.27;15.70;;;;;;;12.48;100.00;97140.47;5025367;28;20090;-64
2021/06/09 02:42:37;;;;;;;22.17;15.35;;;;;;;12.51;100.00;97139.72;5023824;28;20512;-63
2021/06/09 02:45:15;;;;;;;20.27;13.98;;;;;;;12.60;100.00;97145.78;5039229;28;20045;-67
2021/06/09 02:47:45;;;;;;;20.27;14.75;;;;;;;12.75;100.00;97140.50;5021722;28;20057;-65
2021/06/09 02:50:12;;;;;;;20.55;13.52;;;;;;;12.83;100.00;97147.66;5016954;28;20060;-65
2021/06/09 02:53:22;;;;;;;18.42;13.52;;;;;;;12.73;100.00;97142.78;5034529;28;20072;-66
2021/06/09 02:56:08;;;;;;;18.13;13.00;;;;;;;12.68;100.00;97148.63;4975817;28;20038;-63
2021/06/09 02:58:33;;;;;;;15.70;11.68;;;;;;;12.73;100.00;97138.13;4978291;28;20066;-65
2021/06/09 03:01:19;;;;;;;17.00;12.95;;;;;;;12.69;100.00;97142.75;5008698;28;20615;-64
2021/06/09 03:03:51;;;;;;;16.67;12.07;;;;;;;12.84;100.00;97138.28;5048276;28;20098;-64
2021/06/09 03:06:24;;;;;;;15.82;11.95;;;;;;;12.94;100.00;97136.81;5035573;28;20037;-66
2021/06/09 03:08:59;;;;;;;14.90;11.60;;;;;;;13.02;100.00;97141.28;5040888;28;20112;-65
2021/06/09 03:11:42;;;;;;;14.95;11.40;;;;;;;13.12;100.00;97137.06;5028487;28;20045;-65
2021/06/09 03:17:00;;;;;;;14.38;10.13;;;;;;;13.23;100.00;97129.75;5019788;28;20544;-64
2021/06/09 03:19:52;;;;;;;13.50;10.57;;;;;;;13.03;100.00;97126.34;5032352;28;20080;-65
2021/06/09 03:22:31;;;;;;;17.08;11.25;;;;;;;12.91;100.00;97124.63;5024788;28;20128;-65
2021/06/09 03:24:58;;;;;;;14.85;11.77;;;;;;;12.84;100.00;97131.97;5039136;28;20373;-64
2021/06/09 03:27:55;;;;;;;14.90;11.38;;;;;;;12.75;100.00;97126.75;5034967;28;20534;-65
2021/06/09 03:30:23;;;;;;;16.05;11.30;;;;;;;12.87;100.00;97133.97;5032262;28;20434;-65
2021/06/09 03:33:09;;;;;;;15.65;11.63;;;;;;;12.92;100.00;97128.94;5038311;28;20064;-63
2021/06/09 03:35:37;;;;;;;16.05;11.85;;;;;;;12.86;100.00;97122.19;5039706;28;20099;-65
2021/06/09 03:38:10;;;;;;;19.85;12.77;;;;;;;12.82;100.00;97127.63;5037451;28;20033;-66
2021/06/09 03:40:41;;;;;;;17.58;12.80;;;;;;;12.88;100.00;97130.06;5040257;28;20100;-63
2021/06/09 03:43:09;;;;;;;15.35;11.35;;;;;;;13.02;100.00;97113.78;5032379;28;20045;-65
2021/06/09 03:45:43;;;;;;;17.50;11.70;;;;;;;13.08;100.00;97123.28;5040103;28;20049;-64
2021/06/09 03:48:09;;;;;;;16.67;11.80;;;;;;;13.15;100.00;97117.88;5032342;28;20048;-64
2021/06/09 03:50:37;;;;;;;15.65;11.57;;;;;;;13.31;100.00;97122.44;5045152;28;20382;-62
2021/06/09 03:53:05;;;;;;;15.23;11.50;;;;;;;13.33;100.00;97126.38;5039640;28;20037;-64
2021/06/09 03:55:36;;;;;;;16.98;11.93;;;;;;;13.22;100.00;97122.69;5036028;28;20037;-63
2021/06/09 03:58:04;;;;;;;17.48;10.88;;;;;;;13.22;100.00;97122.69;5065319;22;20060;-61
2021/06/09 04:00:31;;;;;;;17.48;12.68;;;;;;;13.29;100.00;97125.50;5053161;28;20106;-66
2021/06/09 04:02:58;;;;;;;18.60;13.07;;;;;;;13.22;100.00;97128.19;5077235;28;20392;-66
2021/06/09 04:05:26;;;;;;;15.90;12.40;;;;;;;13.18;100.00;97127.31;5040549;28;20364;-65
2021/06/09 04:07:52;;;;;;;15.82;12.07;;;;;;;13.27;100.00;97133.34;5048142;28;20098;-65
2021/06/09 04:10:21;;;;;;;17.45;12.95;;;;;;;13.25;100.00;97130.16;5052995;28;20049;-66
2021/06/09 04:12:46;;;;;;;15.50;12.07;;;;;;;13.21;100.00;97126.56;5043420;28;20083;-66
2021/06/09 04:15:12;;;;;;;20.77;13.70;;;;;;;13.25;100.00;97126.63;5052091;28;20040;-65
2021/06/09 04:17:40;;;;;;;16.15;11.45;;;;;;;13.28;100.00;97131.38;5045461;28;20139;-67
2021/06/09 04:20:07;;;;;;;16.15;12.73;;;;;;;13.29;100.00;97135.72;5051954;28;20064;-65
2021/06/09 04:22:34;;;;;;;18.27;12.15;;;;;;;13.31;100.00;97127.94;5043427;28;20103;-66
2021/06/09 04:25:00;;;;;;;16.40;12.32;;;;;;;13.40;100.00;97125.69;5043348;28;20049;-64
2021/06/09 04:27:35;;;;;;;16.27;12.25;;;;;;;13.49;100.00;97128.13;5039265;28;20438;-65
2021/06/09 04:30:03;;;;;;;17.63;11.55;;;;;;;13.59;100.00;97127.44;5042792;28;20136;-67
2021/06/09 04:32:50;;;;;;;17.17;11.38;;;;;;;13.90;100.00;97128.97;5044081;28;20041;-66
2021/06/09 04:35:16;;;;;;;13.38;10.68;;;;;;;14.24;100.00;97122.59;5061479;28;20037;-65
2021/06/09 04:37:42;;;;;;;11.23;9.10;;;;;;;14.54;100.00;97125.19;5043055;28;20595;-66
2021/06/09 04:40:14;;;;;;;10.98;8.95;;;;;;;14.83;100.00;97128.19;5045747;28;20041;-61
2021/06/09 04:42:42;;;;;;;11.77;9.10;;;;;;;15.08;97.80;97129.13;5060795;28;20048;-63
2021/06/09 04:45:09;;;;;;;10.63;8.90;;;;;;;15.27;95.97;97121.75;5043100;28;20041;-65
2021/06/09 04:47:34;;;;;;;12.50;9.68;;;;;;;15.13;95.74;97130.72;5045439;28;20072;-65
2021/06/09 04:50:00;;;;;;;12.35;9.52;;;;;;;14.96;95.87;97120.38;5050538;28;20077;-64
2021/06/09 04:52:25;;;;;;;17.50;12.68;;;;;;;14.57;97.46;97123.63;5037733;28;20049;-63
2021/06/09 04:54:50;;;;;;;18.38;12.48;;;;;;;14.41;99.90;97126.69;5053125;28;20048;-64
2021/06/09 04:57:16;;;;;;;16.92;13.10;;;;;;;13.89;100.00;97126.59;5049298;28;20047;-63
2021/06/09 04:59:41;;;;;;;16.52;12.45;;;;;;;13.70;100.00;97122.88;5063607;28;20040;-63
2021/06/09 05:02:07;;;;;;;16.58;13.27;;;;;;;13.70;100.00;97133.06;5051031;28;20079;-64
2021/06/09 05:04:32;;;;;;;23.17;13.95;;;;;;;13.67;100.00;97126.38;5055432;28;20080;-64
2021/06/09 05:06:58;;;;;;;17.08;12.52;;;;;;;14.11;100.00;97135.84;5055778;28;20488;-65
2021/06/09 05:09:24;;;;;;;16.02;11.90;;;;;;;14.65;100.00;97137.13;5053860;28;20345;-66
2021/06/09 05:12:12;;;;;;;15.20;10.52;;;;;;;15.24;100.00;97133.53;5054758;28;20498;-66
2021/06/09 05:14:48;;;;;;;11.88;9.50;;;;;;;15.74;97.46;97141.25;5060482;28;20392;-66
2021/06/09 05:17:19;;;;;;;13.05;8.80;;;;;;;16.10;93.34;97133.03;5054101;28;20045;-65
2021/06/09 05:19:46;;;;;;;17.75;8.98;;;;;;;16.20;91.61;97132.28;5060459;28;20044;-64
2021/06/09 05:22:50;;;;;;;11.40;8.80;;;;;;;16.33;91.15;97143.72;5053090;28;20087;-65
2021/06/09 05:25:17;;;;;;;15.18;10.15;;;;;;;16.74;91.13;97141.34;4985537;28;20038;-66
2021/06/09 05:27:44;;;;;;;12.68;10.13;;;;;;;16.97;88.85;97137.41;5063223;28;20032;-66
2021/06/09 05:30:14;;;;;;;13.00;8.82;;;;;;;17.25;86.86;97147.63;5056357;28;20087;-64
2021/06/09 05:32:39;;;;;;;;;;;;;;;17.32;85.85;97152.34;5060573;28;20573;-64
2021/06/09 05:35:06;;;;;;;11.80;9.38;;;;;;;17.18;86.44;97153.97;5050717;28;19917;-60
2021/06/09 05:37:33;;;;;;;11.63;9.52;;;;;;;17.31;85.81;97146.03;5059596;28;20139;-65
2021/06/09 05:40:00;;;;;;;10.98;8.68;;;;;;;17.56;84.77;97143.16;5062528;28;20041;-65
2021/06/09 05:42:26;;;;;;;11.00;8.65;;;;;;;17.65;83.95;97147.50;5059329;28;20197;-65
2021/06/09 05:44:54;;;;;;;10.52;8.75;;;;;;;17.82;83.46;97149.38;5054442;28;20127;-63
2021/06/09 05:47:21;;;;;;;10.60;8.48;;;;;;;17.99;82.77;97144.97;5055139;28;20040;-65
2021/06/09 05:49:47;;;;;;;11.30;8.60;;;;;;;17.96;81.95;97159.63;5058395;28;20470;-67
2021/06/09 05:52:12;;;;;;;11.63;9.20;;;;;;;18.06;82.22;97157.97;5050814;28;20127;-64
2021/06/09 05:54:41;;;;;;;12.60;8.95;;;;;;;17.88;82.23;97147.81;5055064;28;20135;-65
2021/06/09 05:57:09;;;;;;;12.88;9.27;;;;;;;18.06;82.53;97156.00;5048903;28;20037;-65
2021/06/09 05:59:36;;;;;;;13.68;10.20;;;;;;;18.07;81.21;97148.47;5027222;28;20044;-64
2021/06/09 06:02:02;;;;;;;11.63;8.75;;;;;;;18.24;81.67;97155.09;5062014;28;20044;-65
2021/06/09 06:04:28;;;;;;;11.90;9.55;;;;;;;18.46;81.11;97159.31;5054455;28;20048;-66
2021/06/09 06:06:54;;;;;;;12.55;9.45;;;;;;;18.70;80.52;97154.75;5013116;28;20041;-61
2021/06/09 06:09:20;;;;;;;12.82;9.95;;;;;;;18.74;79.79;97151.94;5036482;28;20051;-65
2021/06/09 06:11:47;;;;;;;17.30;10.23;;;;;;;18.89;78.99;97153.41;5054584;28;20057;-66
2021/06/09 06:14:13;;;;;;;16.33;10.73;;;;;;;18.86;78.54;97161.78;5050435;28;20060;-65
2021/06/09 06:16:52;;;;;;;12.27;9.85;;;;;;;18.89;78.31;97158.19;5059946;28;20055;-67
2021/06/09 06:19:18;;;;;;;14.85;10.40;;;;;;;18.31;80.85;97153.06;5051847;28;20044;-64
2021/06/09 06:21:44;;;;;;;18.27;12.27;;;;;;;17.19;85.40;97157.53;5050399;28;20595;-66
2021/06/09 06:24:10;;;;;;;13.57;10.30;;;;;;;17.68;85.22;97146.66;5049320;28;20123;-66
2021/06/09 06:26:38;;;;;;;13.35;9.73;;;;;;;18.15;83.24;97156.34;5058864;28;20055;-65
2021/06/09 06:29:07;;;;;;;21.93;13.77;;;;;;;18.48;82.31;97159.69;5055997;28;20045;-60
2021/06/09 06:31:34;;;;;;;16.10;12.43;;;;;;;17.88;83.79;97161.66;5060565;28;20444;-63
2021/06/09 06:34:01;;;;;;;15.48;12.15;;;;;;;18.06;84.63;97158.78;5062785;28;20453;-63
2021/06/09 06:36:27;;;;;;;13.27;9.90;;;;;;;18.89;80.58;97158.97;5052503;28;20069;-63
2021/06/09 06:38:53;;;;;;;15.15;11.02;;;;;;;19.61;76.23;97154.66;5060412;28;20043;-63
2021/06/09 06:41:21;;;;;;;18.08;12.07;;;;;;;18.85;79.01;97163.78;5055673;28;20047;-65
2021/06/09 06:43:46;;;;;;;15.25;11.60;;;;;;;19.26;79.00;97157.41;5064698;28;20510;-65
2021/06/09 06:46:18;;;;;;;17.30;12.20;;;;;;;19.99;74.11;97154.59;5048837;28;20037;-63
2021/06/09 06:48:50;;;;;;;15.98;11.77;;;;;;;20.42;73.42;97156.75;5036646;28;20481;-65
2021/06/09 06:51:17;;;;;;;17.15;12.52;;;;;;;20.81;69.55;97161.72;5017380;28;20404;-64
2021/06/09 06:53:46;;;;;;;15.68;12.23;;;;;;;20.05;73.59;97158.47;5060824;28;20044;-66
2021/06/09 06:56:13;;;;;;;16.45;11.80;;;;;;;19.97;74.59;97163.34;5032736;28;20044;-65
2021/06/09 06:58:39;;;;;;;17.15;12.13;;;;;;;21.19;72.37;97160.63;5058083;28;20078;-66
2021/06/09 07:01:06;;;;;;;13.55;10.50;;;;;;;22.77;65.46;97164.88;5054632;28;20040;-65
2021/06/09 07:03:35;;;;;;;15.35;11.18;;;;;;;23.41;62.39;97160.44;5052118;28;20148;-65
2021/06/09 07:06:01;;;;;;;12.65;10.00;;;;;;;24.56;57.99;97159.91;5060683;28;20047;-65
2021/06/09 07:08:26;;;;;;;14.48;8.85;;;;;;;24.67;55.84;97159.56;5054887;28;20048;-63
2021/06/09 07:10:52;;;;;;;15.10;9.68;;;;;;;24.53;55.34;97163.59;5060851;28;20044;-64
2021/06/09 07:13:21;;;;;;;13.40;9.00;;;;;;;24.82;56.19;97159.09;5053382;28;20127;-64
2021/06/09 07:15:46;;;;;;;13.52;8.90;;;;;;;25.43;54.23;97165.44;5060614;28;20148;-64
2021/06/09 07:18:12;;;;;;;12.13;8.15;;;;;;;26.55;49.28;97167.69;5048899;28;20127;-63
2021/06/09 07:20:39;;;;;;;10.93;8.70;;;;;;;26.27;48.74;97162.72;5059493;28;20479;-63
2021/06/09 07:23:04;;;;;;;12.43;8.85;;;;;;;25.94;48.16;97168.00;5043212;28;20036;-62
2021/06/09 07:25:31;;;;;;;12.35;9.20;;;;;;;25.46;51.28;97167.31;5060045;28;20507;-63
2021/06/09 07:28:02;;;;;;;13.27;7.95;;;;;;;24.96;53.44;97167.78;5060641;28;20458;-66
2021/06/09 07:30:30;;;;;;;9.75;7.88;;;;;;;25.42;52.86;97173.06;5050606;28;20102;-65
2021/06/09 07:32:56;;;;;;;11.57;9.50;;;;;;;24.97;52.00;97171.38;5058158;28;20071;-66
2021/06/09 07:35:22;;;;;;;14.48;8.18;;;;;;;25.11;52.41;97175.72;5054503;28;20068;-65
2021/06/09 07:37:50;;;;;;;14.70;10.20;;;;;;;25.25;53.57;97177.28;5056303;28;20493;-66
2021/06/09 07:40:23;;;;;;;14.40;8.18;;;;;;;26.22;50.19;97182.22;5035404;28;20033;-68
2021/06/09 07:42:51;;;;;;;13.68;8.50;;;;;;;27.20;46.79;97177.06;5040559;28;20500;-63
2021/06/09 07:45:19;;;;;;;11.48;7.90;;;;;;;27.69;46.63;97183.81;5045714;28;20461;-65
2021/06/09 07:47:47;;;;;;;12.90;7.95;;;;;;;28.62;42.34;97185.19;5042421;28;20060;-65
2021/06/09 07:50:14;;;;;;;10.25;7.82;;;;;;;28.26;44.19;97183.28;5053882;28;20078;-65
2021/06/09 07:52:42;;;;;;;11.88;6.95;;;;;;;28.84;41.80;97179.28;5059625;28;20488;-66
2021/06/09 07:55:08;;;;;;;11.75;6.47;;;;;;;28.50;41.05;97184.13;5055275;28;20044;-64
2021/06/09 07:57:36;;;;;;;10.23;7.53;;;;;;;27.14;44.53;97188.16;5041162;28;20135;-66
2021/06/09 08:00:06;;;;;;;11.80;6.95;;;;;;;26.29;47.03;97193.16;5054352;28;20559;-60
2021/06/09 08:02:35;;;;;;;10.25;7.70;;;;;;;26.45;47.59;97180.88;5060899;28;20044;-65
2021/06/09 08:05:03;;;;;;;11.15;7.93;;;;;;;25.44;49.18;97178.97;5059287;28;20110;-65
2021/06/09 08:07:29;;;;;;;10.97;7.73;;;;;;;25.00;50.77;97185.25;5055864;28;20045;-66
2021/06/09 08:09:54;;;;;;;8.65;7.55;;;;;;;21.83;58.60;97186.50;5066630;28;20098;-65
2021/06/09 08:12:22;;;;;;;10.32;7.82;;;;;;;23.84;54.41;97181.66;5054533;28;20097;-65
2021/06/09 08:14:47;;;;;;;10.73;7.07;;;;;;;25.14;51.62;97184.00;5059337;28;20036;-63
2021/06/09 08:17:13;;;;;;;11.07;8.10;;;;;;;23.12;54.37;97187.56;5051538;28;20394;-63
2021/06/09 08:19:38;;;;;;;11.02;9.02;;;;;;;22.76;57.91;97192.03;5034795;28;20392;-64
2021/06/09 08:22:05;;;;;;;9.13;7.45;;;;;;;23.34;57.42;97190.63;5058779;28;20037;-60
2021/06/09 08:24:31;;;;;;;13.27;9.60;;;;;;;23.81;56.42;97188.13;5054888;28;20091;-64
2021/06/09 08:27:03;;;;;;;17.92;10.27;;;;;;;24.26;56.36;97180.81;5050706;28;20461;-65
2021/06/09 08:29:29;;;;;;;11.40;8.75;;;;;;;24.52;54.92;97187.19;5036797;28;20053;-65
2021/06/09 08:31:55;;;;;;;10.40;7.95;;;;;;;24.98;53.41;97181.34;5040193;28;20033;-65
2021/06/09 08:34:20;;;;;;;11.80;9.55;;;;;;;25.08;53.33;97190.63;5034163;28;20048;-64
2021/06/09 08:36:46;;;;;;;13.65;9.27;;;;;;;25.00;53.15;97188.06;5040931;28;20055;-62
2021/06/09 08:39:12;;;;;;;11.93;9.25;;;;;;;25.98;51.65;97188.28;5039830;28;20516;-62
2021/06/09 08:41:43;;;;;;;11.43;9.23;;;;;;;26.19;50.85;97186.69;5051465;28;20137;-65
2021/06/09 08:44:09;;;;;;;18.13;10.27;;;;;;;25.46;52.25;97182.13;5053762;28;20036;-64
2021/06/09 08:46:36;;;;;;;14.40;10.23;;;;;;;24.69;55.99;97189.91;5044152;28;20102;-63
2021/06/09 08:49:03;;;;;;;15.63;11.45;;;;;;;24.45;55.28;97187.41;5059317;28;20040;-60
2021/06/09 08:51:32;;;;;;;17.30;11.48;;;;;;;24.55;55.30;97188.34;5043993;28;20094;-65
2021/06/09 08:53:58;;;;;;;17.65;10.98;;;;;;;24.69;55.75;97187.91;5061704;28;20501;-65
2021/06/09 08:56:25;;;;;;;13.55;11.00;;;;;;;24.78;55.30;97187.22;5055573;28;20611;-64
2021/06/09 08:58:51;;;;;;;13.70;10.32;;;;;;;24.88;54.26;97185.28;5055912;28;20562;-65
2021/06/09 09:01:17;;;;;;;14.95;10.75;;;;;;;25.08;52.70;97187.81;5054056;28;20080;-63
2021/06/09 09:03:47;;;;;;;13.05;9.95;;;;;;;25.07;52.59;97189.06;5067531;28;20124;-64
2021/06/09 09:06:13;;;;;;;12.02;9.93;;;;;;;23.96;56.01;97196.88;5053605;28;20737;-64
2021/06/09 09:08:39;;;;;;;13.63;8.88;;;;;;;24.50;55.02;97188.88;5059381;28;20060;-64
2021/06/09 09:11:05;;;;;;;12.30;8.90;;;;;;;24.76;53.38;97195.28;5057934;28;20180;-63
2021/06/09 09:13:34;;;;;;;15.57;9.13;;;;;;;24.70;54.36;97197.06;5059487;28;20113;-65
2021/06/09 09:16:00;;;;;;;12.75;8.77;;;;;;;24.99;52.56;97197.72;5054217;28;20036;-64
2021/06/09 09:18:46;;;;;;;13.65;9.13;;;;;;;25.32;52.34;97193.84;5057296;28;20108;-64
2021/06/09 09:21:13;;;;;;;9.20;7.10;;;;;;;24.89;51.57;97198.84;5053081;28;20186;-63
2021/06/09 09:23:47;;;;;;;9.65;6.78;;;;;;;24.44;52.65;97194.25;5051142;28;20044;-63
2021/06/09 09:26:45;;;;;;;9.30;7.00;;;;;;;23.53;54.90;97200.84;5050784;28;20457;-65
2021/06/09 09:29:21;;;;;;;10.52;6.90;;;;;;;23.24;55.56;97198.03;5039525;28;20044;-65
2021/06/09 09:31:58;;;;;;;8.85;6.10;;;;;;;23.32;54.20;97201.41;5061040;28;20476;-66
2021/06/09 09:34:33;;;;;;;7.50;5.63;;;;;;;24.03;54.46;97193.09;5054756;28;20511;-62
2021/06/09 09:37:14;;;;;;;10.73;6.38;;;;;;;23.55;53.88;97195.63;5061816;28;20204;-65
2021/06/09 09:39:42;;;;;;;10.40;6.13;;;;;;;24.34;52.51;97190.53;5051853;28;20110;-65
2021/06/09 09:42:31;;;;;;;12.53;6.50;;;;;;;24.09;53.20;97193.31;5055816;28;20119;-65
2021/06/09 09:45:12;;;;;;;10.05;6.80;;;;;;;24.50;51.91;97194.47;5054076;28;20435;-64
2021/06/09 09:47:38;;;;;;;8.55;6.20;;;;;;;24.76;50.81;97193.28;5057579;28;20048;-64
2021/06/09 09:50:04;;;;;;;8.95;6.25;;;;;;;24.24;51.50;97191.66;5057353;28;20067;-60
2021/06/09 09:52:45;;;;;;;9.32;7.07;;;;;;;23.80;52.98;97197.72;5059882;28;20105;-65
2021/06/09 09:55:11;;;;;;;9.32;6.60;;;;;;;23.75;55.25;97191.88;5056646;28;20519;-65
2021/06/09 09:57:38;;;;;;;9.13;6.60;;;;;;;23.90;53.24;97189.50;5059788;28;20044;-64
2021/06/09 10:00:06;;;;;;;8.35;6.03;;;;;;;24.11;52.91;97188.06;5056753;28;20033;-60
2021/06/09 10:02:32;;;;;;;10.07;7.40;;;;;;;23.96;52.22;97185.69;5059825;28;20041;-64
2021/06/09 10:05:09;;;;;;;9.43;5.80;;;;;;;23.62;54.05;97187.03;5061528;28;20045;-65
2021/06/09 10:07:37;;;;;;;8.23;6.80;;;;;;;23.72;53.46;97184.38;5059417;28;20055;-64
2021/06/09 10:10:03;;;;;;;10.52;6.72;;;;;;;23.56;54.31;97177.59;5058273;28;20048;-60
2021/06/09 10:12:28;;;;;;;8.48;6.78;;;;;;;23.77;53.76;97187.41;5042449;28;20447;-63
2021/06/09 10:14:55;;;;;;;8.77;6.03;;;;;;;24.16;52.31;97177.09;5041874;28;20041;-65
2021/06/09 10:17:26;;;;;;;9.68;6.55;;;;;;;23.90;54.32;97178.31;5042250;28;20071;-65
2021/06/09 10:19:56;;;;;;;11.18;7.88;;;;;;;23.99;52.98;97182.00;5049152;28;20416;-63
2021/06/09 10:22:34;;;;;;;9.13;6.85;;;;;;;24.04;53.28;97175.09;5035731;28;20159;-63
2021/06/09 10:25:06;;;;;;;11.18;7.10;;;;;;;23.95;53.74;97184.13;5041244;28;20044;-63
2021/06/09 10:27:47;;;;;;;10.70;7.10;;;;;;;24.19;53.50;97169.84;5039946;28;20049;-63
2021/06/09 10:30:19;;;;;;;8.82;7.00;;;;;;;24.29;53.47;97173.53;5035468;28;20131;-64
2021/06/09 10:32:49;;;;;;;10.60;7.70;;;;;;;24.28;52.47;97167.16;5063222;28;20048;-65
2021/06/09 10:35:17;;;;;;;10.60;7.68;;;;;;;24.35;52.32;97172.53;5053328;28;20094;-64
2021/06/09 10:37:45;;;;;;;11.90;6.57;;;;;;;24.75;50.81;97174.88;5060431;28;20564;-63
2021/06/09 10:40:14;;;;;;;11.38;7.32;;;;;;;24.77;51.86;97172.41;5055968;28;20106;-63
2021/06/09 10:42:39;;;;;;;14.95;8.57;;;;;;;24.63;50.93;97172.88;5060255;28;20052;-62
2021/06/09 10:45:06;;;;;;;10.35;7.90;;;;;;;23.98;53.80;97165.66;5055709;28;20094;-62
2021/06/09 10:47:34;;;;;;;12.30;8.27;;;;;;;24.47;52.78;97164.56;5059918;28;20041;-64
2021/06/09 10:50:00;;;;;;;12.25;8.65;;;;;;;23.88;53.30;97161.97;5022597;28;20132;-65
2021/06/09 10:52:26;;;;;;;11.60;8.27;;;;;;;23.53;55.84;97166.53;5049995;28;20480;-64
2021/06/09 10:54:53;;;;;;;11.98;8.32;;;;;;;23.65;55.52;97154.59;5051200;28;20044;-64
2021/06/09 10:57:19;;;;;;;10.75;8.98;;;;;;;22.94;57.35;97151.69;5055101;28;20055;-64
2021/06/09 10:59:45;;;;;;;13.30;10.05;;;;;;;23.14;56.39;97149.59;5055406;28;20048;-64
2021/06/09 11:02:16;;;;;;;12.68;9.48;;;;;;;23.32;57.33;97146.34;5041275;28;20475;-62
2021/06/09 11:04:46;;;;;;;11.75;8.98;;;;;;;23.13;57.17;97145.22;5040196;28;20045;-61
2021/06/09 11:07:39;;;;;;;14.75;10.20;;;;;;;23.74;55.82;97146.34;5034719;28;20041;-62
2021/06/09 11:10:16;;;;;;;14.90;10.48;;;;;;;23.36;56.87;97144.22;5049101;28;20051;-61
2021/06/09 11:12:43;;;;;;;14.57;10.10;;;;;;;23.43;57.86;97138.44;5057831;28;20171;-62
2021/06/09 11:15:14;;;;;;;14.80;9.90;;;;;;;23.53;56.33;97133.75;5054566;28;20520;-61
2021/06/09 11:17:57;;;;;;;14.63;10.38;;;;;;;23.90;56.55;97125.16;5050487;28;20072;-60
2021/06/09 11:20:39;;;;;;;17.92;10.70;;;;;;;24.48;55.63;97124.16;5043619;28;20149;-60
2021/06/09 11:23:09;;;;;;;14.85;10.65;;;;;;;23.68;57.43;97120.16;5052112;28;20151;-59
2021/06/09 11:25:39;;;;;;;14.43;9.73;;;;;;;24.01;57.34;97104.00;5049250;28;20635;-61
2021/06/09 11:28:06;;;;;;;16.58;10.52;;;;;;;24.17;56.94;97100.31;5056134;28;20051;-62
2021/06/09 11:30:32;;;;;;;13.27;10.27;;;;;;;24.28;56.12;97105.56;5060671;28;20041;-61